Time;durP1;ratioP1;P1;durP2;ratioP2;P2;SDS_P1;SDS_P2;PMS_P1;PMS_P2;Temp;Humidity;BMP_temperature;BMP_pressure;BME280_temperature;BME280_humidity;BME280_pressure;Samples;Min_cycle;Max_cycle;Signal;HPM_P1;HPM_P2
2020/12/06 00:01:34;;;;;;;9.52;5.85;;;13.60;60.10;;;;;;5009646;28;20033;-63
2020/12/06 00:04:00;;;;;;;8.77;6.07;;;13.70;60.30;;;;;;5009782;28;20026;-62
2020/12/06 00:06:27;;;;;;;10.80;6.18;;;13.70;60.30;;;;;;5010071;28;20022;-62
2020/12/06 00:08:53;;;;;;;8.90;5.72;;;13.60;60.20;;;;;;5011313;28;20030;-61
2020/12/06 00:11:19;;;;;;;9.90;5.57;;;13.60;60.20;;;;;;5011374;28;20076;-62
2020/12/06 00:13:45;;;;;;;8.95;5.68;;;13.60;60.20;;;;;;5060124;22;20057;-62
2020/12/06 00:16:15;;;;;;;8.13;5.47;;;13.60;60.20;;;;;;5030225;28;20033;-62
2020/12/06 00:18:43;;;;;;;11.98;6.68;;;13.60;60.10;;;;;;5029343;28;20461;-63
2020/12/06 00:21:16;;;;;;;9.43;6.15;;;13.60;60.20;;;;;;5025760;28;20421;-63
2020/12/06 00:23:42;;;;;;;9.40;6.32;;;13.60;60.20;;;;;;4999805;28;20107;-64
2020/12/06 00:26:08;;;;;;;9.90;6.68;;;13.60;60.30;;;;;;5005522;28;20029;-62
2020/12/06 00:28:34;;;;;;;9.02;6.07;;;13.50;60.30;;;;;;5011026;28;20022;-63
2020/12/06 00:31:00;;;;;;;8.82;5.65;;;13.50;60.30;;;;;;5009705;28;20064;-63
2020/12/06 00:33:26;;;;;;;9.40;6.45;;;13.50;60.30;;;;;;5003980;28;20018;-64
2020/12/06 00:35:52;;;;;;;9.68;6.65;;;13.50;60.30;;;;;;4991517;28;20443;-62
2020/12/06 00:38:18;;;;;;;9.40;6.00;;;13.50;60.30;;;;;;4991205;28;20034;-62
2020/12/06 00:40:44;;;;;;;8.65;6.07;;;13.50;60.30;;;;;;4989865;28;20053;-63
2020/12/06 00:43:09;;;;;;;8.88;6.30;;;13.50;60.20;;;;;;4990260;28;20034;-63
2020/12/06 00:45:35;;;;;;;9.40;6.60;;;13.50;60.20;;;;;;4990977;28;20023;-63
2020/12/06 00:48:00;;;;;;;8.90;6.00;;;13.50;60.20;;;;;;4989860;28;20033;-63
2020/12/06 00:50:26;;;;;;;9.05;5.32;;;13.50;60.20;;;;;;4990955;28;20065;-64
2020/12/06 00:52:51;;;;;;;8.35;5.90;;;13.50;60.20;;;;;;4995042;28;20096;-63
2020/12/06 00:55:18;;;;;;;8.98;6.15;;;13.50;60.20;;;;;;5010444;28;20050;-61
2020/12/06 00:57:43;;;;;;;9.05;5.93;;;13.50;60.20;;;;;;5009341;28;20026;-62
2020/12/06 01:00:10;;;;;;;10.13;6.28;;;13.50;60.20;;;;;;5010567;28;20034;-62
2020/12/06 01:02:36;;;;;;;9.13;6.22;;;13.50;60.20;;;;;;5010258;28;20054;-62
2020/12/06 01:05:03;;;;;;;10.75;6.55;;;13.40;60.30;;;;;;5008656;28;20487;-65
2020/12/06 01:07:32;;;;;;;8.90;5.70;;;13.40;60.30;;;;;;5010568;28;20382;-63
2020/12/06 01:09:58;;;;;;;9.13;6.28;;;13.40;60.30;;;;;;5003142;28;20026;-65
2020/12/06 01:12:24;;;;;;;13.35;6.28;;;13.40;60.30;;;;;;4990997;28;20062;-63
2020/12/06 01:14:49;;;;;;;10.50;6.75;;;13.40;60.50;;;;;;4991027;28;20034;-63
2020/12/06 01:17:16;;;;;;;9.23;5.85;;;13.40;60.50;;;;;;4993663;28;20045;-63
2020/12/06 01:19:41;;;;;;;10.90;6.38;;;13.40;60.50;;;;;;4999446;28;20099;-63
2020/12/06 01:22:06;;;;;;;10.00;6.78;;;13.40;60.50;;;;;;5014267;28;20030;-64
2020/12/06 01:24:32;;;;;;;11.20;6.35;;;13.40;60.60;;;;;;5013613;28;20026;-63
2020/12/06 01:26:57;;;;;;;10.88;6.70;;;13.40;60.60;;;;;;5014212;28;20479;-63
2020/12/06 01:29:24;;;;;;;9.50;6.72;;;13.40;60.60;;;;;;5012843;28;20554;-63
2020/12/06 01:31:49;;;;;;;10.10;6.63;;;13.30;60.50;;;;;;5014157;28;20025;-63
2020/12/06 01:34:16;;;;;;;11.65;6.25;;;13.30;60.60;;;;;;5012930;28;20144;-64
2020/12/06 01:36:42;;;;;;;9.40;6.53;;;13.30;60.60;;;;;;5014001;28;20160;-63
2020/12/06 01:39:08;;;;;;;21.70;7.15;;;13.30;60.60;;;;;;5012613;28;20495;-64
2020/12/06 01:41:34;;;;;;;9.98;5.95;;;13.30;60.60;;;;;;5013760;28;20104;-63
2020/12/06 01:44:00;;;;;;;10.80;6.53;;;13.30;60.50;;;;;;5013149;28;20226;-63
2020/12/06 01:46:26;;;;;;;10.82;6.70;;;13.30;60.50;;;;;;5012498;28;20037;-64
2020/12/06 01:48:53;;;;;;;10.63;6.22;;;13.30;60.50;;;;;;5013829;28;20557;-63
2020/12/06 01:51:20;;;;;;;10.60;6.07;;;13.30;60.50;;;;;;5013467;28;20183;-63
2020/12/06 01:53:48;;;;;;;10.38;6.32;;;13.30;60.50;;;;;;5012944;28;20045;-65
2020/12/06 01:56:14;;;;;;;9.88;6.35;;;13.30;60.60;;;;;;5013648;28;20483;-63
2020/12/06 01:58:40;;;;;;;11.25;6.53;;;13.30;60.50;;;;;;5013644;28;20026;-63
2020/12/06 02:01:09;;;;;;;9.35;6.10;;;13.30;60.50;;;;;;5012259;28;20105;-65
2020/12/06 02:03:35;;;;;;;11.38;6.07;;;13.30;60.60;;;;;;5012442;28;20048;-63
2020/12/06 02:06:02;;;;;;;12.05;5.97;;;13.30;60.60;;;;;;5013346;28;20105;-64
2020/12/06 02:08:28;;;;;;;13.68;6.45;;;13.30;60.60;;;;;;5013233;28;20390;-63
2020/12/06 02:10:54;;;;;;;15.40;7.63;;;13.30;60.60;;;;;;4999946;28;20023;-63
2020/12/06 02:13:23;;;;;;;11.50;6.97;;;13.30;60.50;;;;;;5006408;28;20048;-64
2020/12/06 02:15:49;;;;;;;13.27;7.40;;;13.30;60.40;;;;;;5013283;28;20065;-64
2020/12/06 02:18:16;;;;;;;14.10;7.10;;;13.30;60.40;;;;;;5011973;28;20057;-61
2020/12/06 02:20:42;;;;;;;12.68;6.88;;;13.20;60.40;;;;;;5013285;28;20029;-64
2020/12/06 02:23:08;;;;;;;13.05;6.68;;;13.30;60.50;;;;;;5012326;28;20076;-63
2020/12/06 02:25:40;;;;;;;11.48;6.55;;;13.20;60.50;;;;;;5012524;28;20030;-64
2020/12/06 02:28:07;;;;;;;12.88;7.03;;;13.20;60.50;;;;;;5013238;28;20557;-63
2020/12/06 02:30:33;;;;;;;10.07;6.53;;;13.20;60.50;;;;;;5013042;28;20079;-62
2020/12/06 02:33:00;;;;;;;11.35;6.25;;;13.20;60.50;;;;;;5012332;28;20113;-62
2020/12/06 02:35:26;;;;;;;11.15;6.95;;;13.20;60.50;;;;;;5012954;28;20542;-64
2020/12/06 02:37:52;;;;;;;12.27;6.68;;;13.20;60.50;;;;;;5011658;28;20164;-65
2020/12/06 02:40:17;;;;;;;9.70;6.47;;;13.20;60.50;;;;;;5012893;28;20072;-65
2020/12/06 02:42:43;;;;;;;9.02;6.45;;;13.20;60.60;;;;;;5012057;28;20099;-60
2020/12/06 02:45:09;;;;;;;10.13;6.50;;;13.20;60.50;;;;;;5012827;28;20386;-62
2020/12/06 02:47:34;;;;;;;10.15;6.55;;;13.20;60.60;;;;;;5011492;28;20088;-62
2020/12/06 02:50:00;;;;;;;11.55;6.47;;;13.20;60.50;;;;;;5012787;28;20025;-63
2020/12/06 02:52:26;;;;;;;10.02;6.18;;;13.20;60.50;;;;;;5011464;28;20116;-64
2020/12/06 02:54:51;;;;;;;10.52;6.50;;;13.20;60.50;;;;;;5010938;28;20513;-62
2020/12/06 02:57:17;;;;;;;9.60;6.32;;;13.20;60.50;;;;;;5012816;28;20065;-62
2020/12/06 02:59:42;;;;;;;10.82;6.68;;;13.20;60.50;;;;;;5011450;28;20395;-62
2020/12/06 03:02:08;;;;;;;10.38;6.75;;;13.20;60.50;;;;;;5011310;28;20033;-66
2020/12/06 03:04:33;;;;;;;11.18;7.30;;;13.20;60.50;;;;;;5010583;28;20021;-62
2020/12/06 03:06:59;;;;;;;10.88;6.22;;;13.20;60.50;;;;;;5009142;28;20105;-63
2020/12/06 03:09:24;;;;;;;10.32;6.68;;;13.20;60.50;;;;;;5010643;28;20022;-63
2020/12/06 03:11:50;;;;;;;11.05;6.40;;;13.20;60.50;;;;;;4992735;28;20030;-64
2020/12/06 03:14:16;;;;;;;11.77;6.90;;;13.20;60.50;;;;;;4991761;28;20034;-63
2020/12/06 03:16:41;;;;;;;10.50;6.72;;;13.20;60.50;;;;;;4992699;28;20030;-63
2020/12/06 03:19:07;;;;;;;10.20;6.30;;;13.20;60.50;;;;;;4992539;28;20022;-63
2020/12/06 03:21:32;;;;;;;12.80;6.82;;;13.20;60.50;;;;;;4992432;28;20058;-63
2020/12/06 03:23:58;;;;;;;10.40;6.30;;;13.20;60.50;;;;;;4991641;28;20057;-62
2020/12/06 03:26:23;;;;;;;10.88;6.60;;;13.10;60.40;;;;;;4990825;28;20089;-65
2020/12/06 03:28:49;;;;;;;10.27;6.22;;;13.20;60.40;;;;;;4992326;28;20070;-62
2020/12/06 03:31:14;;;;;;;10.27;6.28;;;13.20;60.50;;;;;;4992314;28;20026;-64
2020/12/06 03:33:40;;;;;;;10.80;6.47;;;13.10;60.40;;;;;;4999862;28;20041;-63
2020/12/06 03:36:05;;;;;;;9.30;6.38;;;13.10;60.40;;;;;;5011380;28;20030;-62
2020/12/06 03:38:32;;;;;;;9.75;6.40;;;13.10;60.40;;;;;;5005746;28;20232;-62
2020/12/06 03:40:58;;;;;;;9.70;6.50;;;13.20;60.40;;;;;;5011640;28;20034;-63
2020/12/06 03:43:23;;;;;;;14.13;7.05;;;13.10;60.40;;;;;;5011037;28;20491;-62
2020/12/06 03:45:48;;;;;;;10.15;6.63;;;13.10;60.40;;;;;;5011217;28;20030;-65
2020/12/06 03:48:14;;;;;;;9.73;6.18;;;13.20;60.40;;;;;;5011324;28;20022;-63
2020/12/06 03:50:39;;;;;;;10.52;6.32;;;13.20;60.50;;;;;;5011197;28;20053;-63
2020/12/06 03:53:05;;;;;;;11.32;6.55;;;13.20;60.40;;;;;;5011165;28;20044;-63
2020/12/06 03:55:30;;;;;;;9.20;6.13;;;13.10;60.40;;;;;;5011201;28;20037;-64
2020/12/06 03:57:56;;;;;;;11.98;6.35;;;13.10;60.30;;;;;;5009908;28;20029;-62
2020/12/06 04:00:21;;;;;;;11.48;6.13;;;13.10;60.30;;;;;;5011093;28;20052;-62
2020/12/06 04:02:51;;;;;;;9.68;5.93;;;13.10;60.30;;;;;;5010937;28;20109;-62
2020/12/06 04:05:21;;;;;;;9.55;5.97;;;13.10;60.30;;;;;;5011495;28;20108;-66
2020/12/06 04:07:49;;;;;;;9.48;5.95;;;13.10;60.20;;;;;;5011505;28;20544;-62
2020/12/06 04:10:14;;;;;;;10.15;6.20;;;13.10;60.20;;;;;;5011218;28;20114;-62
2020/12/06 04:12:40;;;;;;;9.93;6.53;;;13.10;60.30;;;;;;5009758;28;20101;-60
2020/12/06 04:15:05;;;;;;;9.60;6.40;;;13.10;60.30;;;;;;5010832;28;20034;-63
2020/12/06 04:17:31;;;;;;;10.05;6.25;;;13.10;60.30;;;;;;5011123;28;20030;-61
2020/12/06 04:19:56;;;;;;;9.95;6.25;;;13.10;60.40;;;;;;5009566;28;20550;-62
2020/12/06 04:22:22;;;;;;;8.82;5.65;;;13.10;60.30;;;;;;5009713;28;20050;-63
2020/12/06 04:24:47;;;;;;;8.57;5.85;;;13.10;60.30;;;;;;5010313;28;20360;-65
2020/12/06 04:27:13;;;;;;;11.13;6.03;;;13.10;60.30;;;;;;5010806;28;20030;-63
2020/12/06 04:29:38;;;;;;;8.38;5.32;;;13.10;60.30;;;;;;5009355;28;20501;-63
2020/12/06 04:32:04;;;;;;;10.23;6.00;;;13.10;60.20;;;;;;5010572;28;20030;-64
2020/12/06 04:34:29;;;;;;;9.40;6.28;;;13.10;60.30;;;;;;5010400;28;20479;-64
2020/12/06 04:36:55;;;;;;;8.75;5.65;;;13.00;60.20;;;;;;5009510;28;20121;-63
2020/12/06 04:39:20;;;;;;;9.18;6.10;;;13.10;60.70;;;;;;5010433;28;20418;-63
2020/12/06 04:41:46;;;;;;;9.45;6.13;;;13.10;60.20;;;;;;5010146;28;20033;-63
2020/12/06 04:44:11;;;;;;;9.45;5.65;;;13.10;60.30;;;;;;5009095;28;20029;-64
2020/12/06 04:46:38;;;;;;;9.48;6.13;;;13.10;60.20;;;;;;5010310;28;20028;-63
2020/12/06 04:49:06;;;;;;;9.05;6.05;;;13.00;60.10;;;;;;5010407;28;20054;-64
2020/12/06 04:51:42;;;;;;;9.00;5.70;;;13.00;60.10;;;;;;5010493;28;20113;-62
2020/12/06 04:54:09;;;;;;;9.57;5.93;;;13.00;60.10;;;;;;5010136;28;20018;-65
2020/12/06 04:56:37;;;;;;;8.35;5.65;;;13.00;60.10;;;;;;5010585;28;20029;-65
2020/12/06 04:59:03;;;;;;;8.75;6.20;;;13.10;60.20;;;;;;5009420;28;20077;-64
2020/12/06 05:01:36;;;;;;;9.15;6.07;;;13.00;60.10;;;;;;5009416;28;20395;-63
2020/12/06 05:04:15;;;;;;;8.95;5.95;;;13.00;60.10;;;;;;5009690;28;20030;-63
2020/12/06 05:06:42;;;;;;;8.80;6.07;;;13.00;60.10;;;;;;5009326;28;20053;-62
2020/12/06 05:09:13;;;;;;;9.73;5.93;;;13.00;60.20;;;;;;5010745;28;20491;-63
2020/12/06 05:11:40;;;;;;;9.88;5.72;;;13.00;60.20;;;;;;5010655;28;20479;-66
2020/12/06 05:14:06;;;;;;;10.15;6.13;;;13.00;60.10;;;;;;5010001;28;20030;-64
2020/12/06 05:16:39;;;;;;;8.35;5.68;;;13.00;60.20;;;;;;5010616;28;20048;-64
2020/12/06 05:19:07;;;;;;;9.75;5.78;;;13.00;60.20;;;;;;5010483;28;20026;-63
2020/12/06 05:21:34;;;;;;;8.85;6.20;;;13.00;60.20;;;;;;5010289;28;20483;-62
2020/12/06 05:24:00;;;;;;;8.38;5.65;;;13.00;60.20;;;;;;5010160;28;20032;-63
2020/12/06 05:26:27;;;;;;;9.02;5.82;;;13.00;60.20;;;;;;5009229;28;20439;-65
2020/12/06 05:28:53;;;;;;;9.00;5.95;;;13.00;60.10;;;;;;5010349;28;20487;-62
2020/12/06 05:31:20;;;;;;;9.18;5.80;;;13.00;60.20;;;;;;5010578;28;20026;-62
2020/12/06 05:33:45;;;;;;;10.05;5.95;;;12.90;60.10;;;;;;5010074;28;20070;-62
2020/12/06 05:36:11;;;;;;;8.88;5.63;;;13.00;60.10;;;;;;5010562;28;20030;-62
2020/12/06 05:38:37;;;;;;;8.00;5.45;;;13.10;60.20;;;;;;5010258;28;20403;-62
2020/12/06 05:41:07;;;;;;;8.68;5.78;;;12.90;60.10;;;;;;5009296;28;20026;-63
2020/12/06 05:43:33;;;;;;;10.25;5.90;;;13.00;60.10;;;;;;5010180;28;20029;-64
2020/12/06 05:46:09;;;;;;;9.10;5.40;;;12.90;60.00;;;;;;5009373;28;20018;-63
2020/12/06 05:48:36;;;;;;;8.02;5.45;;;12.90;60.10;;;;;;5010375;28;20037;-63
2020/12/06 05:51:03;;;;;;;9.02;5.88;;;13.00;60.10;;;;;;5009372;28;20518;-62
2020/12/06 05:53:30;;;;;;;8.95;5.70;;;13.00;60.10;;;;;;5010303;28;20076;-64
2020/12/06 05:56:17;;;;;;;8.93;5.70;;;13.00;60.20;;;;;;5010550;28;20040;-62
2020/12/06 05:58:45;;;;;;;8.65;5.35;;;12.90;60.10;;;;;;5010083;28;20034;-62
2020/12/06 06:01:11;;;;;;;8.65;5.60;;;12.90;60.20;;;;;;5012721;28;20515;-65
2020/12/06 06:03:40;;;;;;;7.82;5.50;;;12.90;60.20;;;;;;5012067;28;20379;-62
2020/12/06 06:06:07;;;;;;;10.60;5.30;;;12.90;60.20;;;;;;4997482;28;20026;-64
2020/12/06 06:08:36;;;;;;;8.40;5.05;;;12.90;60.20;;;;;;5012120;28;20034;-65
2020/12/06 06:11:23;;;;;;;8.38;5.80;;;12.90;60.30;;;;;;5013584;28;20025;-62
2020/12/06 06:14:00;;;;;;;8.55;5.78;;;12.90;60.20;;;;;;5077685;22;20046;-61
2020/12/06 06:16:28;;;;;;;9.43;5.88;;;12.90;60.20;;;;;;5032951;28;20026;-65
2020/12/06 06:18:55;;;;;;;8.15;5.50;;;12.90;60.10;;;;;;5031832;28;20104;-65
2020/12/06 06:21:38;;;;;;;10.15;5.72;;;12.90;60.10;;;;;;5031789;28;20025;-63
2020/12/06 06:24:08;;;;;;;8.05;5.63;;;12.90;60.10;;;;;;5009630;28;20039;-63
2020/12/06 06:26:36;;;;;;;8.07;5.38;;;12.90;60.10;;;;;;4993628;28;20027;-63
2020/12/06 06:29:14;;;;;;;10.18;5.82;;;12.90;60.00;;;;;;4993562;28;20064;-64
2020/12/06 06:31:40;;;;;;;8.20;5.15;;;12.90;60.00;;;;;;5009897;28;20026;-63
2020/12/06 06:34:06;;;;;;;8.07;5.18;;;12.90;60.10;;;;;;5012187;28;20030;-64
2020/12/06 06:36:34;;;;;;;7.75;5.25;;;12.90;60.10;;;;;;5011731;28;20128;-64
2020/12/06 06:39:01;;;;;;;8.45;5.32;;;12.90;60.10;;;;;;5012686;28;20109;-66
2020/12/06 06:41:27;;;;;;;8.55;5.63;;;12.90;60.20;;;;;;5012865;28;20030;-63
2020/12/06 06:43:58;;;;;;;8.63;5.35;;;12.90;60.20;;;;;;5011974;28;20031;-64
2020/12/06 06:46:31;;;;;;;9.82;5.25;;;12.90;60.20;;;;;;5011530;28;20029;-65
2020/12/06 06:48:57;;;;;;;8.30;5.65;;;12.90;60.30;;;;;;5012564;28;20030;-65
2020/12/06 06:51:23;;;;;;;9.35;5.32;;;12.80;60.20;;;;;;5012651;28;20101;-66
2020/12/06 06:53:50;;;;;;;8.15;5.38;;;12.90;60.30;;;;;;5011854;28;20076;-63
2020/12/06 06:56:19;;;;;;;8.68;5.40;;;12.90;60.30;;;;;;5012620;28;20037;-63
2020/12/06 06:58:47;;;;;;;7.55;4.78;;;12.90;60.30;;;;;;5012132;28;20061;-66
2020/12/06 07:01:22;;;;;;;7.80;4.82;;;12.80;60.30;;;;;;5012398;28;20034;-64
2020/12/06 07:03:55;;;;;;;9.60;5.22;;;12.90;60.40;;;;;;4996723;28;20097;-64
2020/12/06 07:06:46;;;;;;;8.63;5.05;;;12.90;60.50;;;;;;5012489;28;20054;-64
2020/12/06 07:09:14;;;;;;;7.75;5.05;;;12.80;60.50;;;;;;5004156;28;20029;-65
2020/12/06 07:11:39;;;;;;;8.98;5.38;;;12.90;60.60;;;;;;4992630;28;20050;-63
2020/12/06 07:14:06;;;;;;;8.30;5.05;;;12.80;60.50;;;;;;4990524;28;20057;-63
2020/12/06 07:16:31;;;;;;;9.52;5.13;;;12.90;60.50;;;;;;4992768;28;20033;-63
2020/12/06 07:18:57;;;;;;;8.30;5.18;;;12.80;60.40;;;;;;5005646;28;20038;-65
2020/12/06 07:21:29;;;;;;;8.45;5.40;;;12.80;60.40;;;;;;4992587;28;20064;-63
2020/12/06 07:23:56;;;;;;;8.48;5.43;;;12.90;60.50;;;;;;4991979;28;20088;-62
2020/12/06 07:26:21;;;;;;;9.30;5.35;;;12.80;60.40;;;;;;4992485;28;20053;-63
2020/12/06 07:28:47;;;;;;;7.82;4.95;;;12.80;60.40;;;;;;5006641;28;20634;-63
2020/12/06 07:31:15;;;;;;;10.27;5.45;;;12.80;60.40;;;;;;5011668;28;20026;-63
2020/12/06 07:33:40;;;;;;;11.02;4.85;;;12.80;60.40;;;;;;5009837;28;20025;-63
2020/12/06 07:36:06;;;;;;;14.25;5.35;;;12.90;61.10;;;;;;5011546;28;20072;-66
2020/12/06 07:38:35;;;;;;;13.38;4.93;;;12.90;61.00;;;;;;5011891;28;20021;-63
2020/12/06 07:41:04;;;;;;;12.63;4.93;;;12.90;61.20;;;;;;5010931;28;20455;-62
2020/12/06 07:43:31;;;;;;;20.63;5.30;;;12.90;61.20;;;;;;5004903;28;20025;-63
2020/12/06 07:45:57;;;;;;;9.38;4.68;;;12.90;61.30;;;;;;5004950;28;20402;-62
2020/12/06 07:48:23;;;;;;;14.32;5.97;;;12.90;61.30;;;;;;5004179;28;20026;-62
2020/12/06 07:50:49;;;;;;;20.38;8.60;;;12.90;61.80;;;;;;5005509;28;20037;-62
2020/12/06 07:53:15;;;;;;;20.90;7.63;;;12.90;61.40;;;;;;5005094;28;20034;-63
2020/12/06 07:55:41;;;;;;;14.43;6.85;;;13.00;61.70;;;;;;5004171;28;20030;-63
2020/12/06 07:58:20;;;;;;;16.55;6.32;;;12.90;61.50;;;;;;5005777;28;20065;-63
2020/12/06 08:00:46;;;;;;;16.00;5.93;;;12.90;61.50;;;;;;4995994;28;20122;-63
2020/12/06 08:03:13;;;;;;;14.90;6.10;;;13.00;61.40;;;;;;5002953;28;20921;-63
2020/12/06 08:05:42;;;;;;;14.45;5.18;;;13.00;61.40;;;;;;5002269;28;20022;-63
2020/12/06 08:08:14;;;;;;;17.52;5.60;;;13.00;61.30;;;;;;5004633;28;20032;-63
2020/12/06 08:10:41;;;;;;;15.23;5.63;;;13.10;61.30;;;;;;5003303;28;20604;-63
2020/12/06 08:13:10;;;;;;;11.43;5.03;;;13.10;61.30;;;;;;5004209;28;20176;-62
2020/12/06 08:15:36;;;;;;;13.90;5.82;;;13.10;61.10;;;;;;5004899;28;20033;-63
2020/12/06 08:18:13;;;;;;;15.32;5.72;;;13.10;60.90;;;;;;5002190;28;20041;-63
2020/12/06 08:20:39;;;;;;;18.60;6.35;;;13.10;60.80;;;;;;5003155;28;20038;-63
2020/12/06 08:23:05;;;;;;;13.90;5.78;;;13.10;60.60;;;;;;5003592;28;20056;-63
2020/12/06 08:25:32;;;;;;;11.43;4.97;;;13.10;60.60;;;;;;4984913;28;20037;-64
2020/12/06 08:28:00;;;;;;;15.93;5.53;;;13.10;60.50;;;;;;4983303;28;20022;-63
2020/12/06 08:30:28;;;;;;;48.78;40.25;;;13.10;60.50;;;;;;4983656;28;20018;-63
2020/12/06 08:32:57;;;;;;;25.75;18.08;;;13.20;60.70;;;;;;4993600;28;20120;-62
2020/12/06 08:35:46;;;;;;;19.95;12.52;;;13.20;60.80;;;;;;5004876;28;20853;-63
2020/12/06 08:38:22;;;;;;;14.77;7.97;;;13.20;61.00;;;;;;5003656;28;20034;-62
2020/12/06 08:41:06;;;;;;;15.60;7.50;;;13.20;61.00;;;;;;4991704;28;20026;-66
2020/12/06 08:43:48;;;;;;;23.30;8.13;;;13.30;61.30;;;;;;4985299;28;20026;-64
2020/12/06 08:46:16;;;;;;;23.35;7.90;;;13.20;61.40;;;;;;4992633;28;20029;-62
2020/12/06 08:48:43;;;;;;;21.52;7.03;;;13.30;61.50;;;;;;5003656;28;20507;-63
2020/12/06 08:51:23;;;;;;;22.55;9.80;;;13.30;61.30;;;;;;5005049;28;20022;-67
2020/12/06 08:53:49;;;;;;;19.05;8.10;;;13.40;61.30;;;;;;5004374;28;20097;-64
2020/12/06 08:56:28;;;;;;;16.08;6.55;;;13.40;61.30;;;;;;5001750;28;20394;-63
2020/12/06 08:58:53;;;;;;;14.10;6.93;;;13.50;61.30;;;;;;5003086;28;20096;-63
2020/12/06 09:01:19;;;;;;;13.27;6.68;;;13.50;61.20;;;;;;5004212;28;20025;-64
2020/12/06 09:03:44;;;;;;;13.63;7.03;;;13.50;61.70;;;;;;5002783;28;20124;-64
2020/12/06 09:06:17;;;;;;;16.60;7.05;;;13.60;61.00;;;;;;5003434;28;20026;-62
2020/12/06 09:08:43;;;;;;;16.92;6.75;;;13.60;60.90;;;;;;5005122;28;20053;-63
2020/12/06 09:11:16;;;;;;;15.85;6.78;;;13.60;61.00;;;;;;5003609;28;20076;-64
2020/12/06 09:13:43;;;;;;;14.00;6.95;;;13.70;61.10;;;;;;5004320;28;20136;-62
2020/12/06 09:16:08;;;;;;;14.48;6.30;;;13.80;61.10;;;;;;5003214;28;20026;-63
2020/12/06 09:18:34;;;;;;;10.10;6.05;;;13.80;61.10;;;;;;5004893;28;20034;-64
2020/12/06 09:20:59;;;;;;;16.80;6.75;;;13.90;61.10;;;;;;5004788;28;20038;-65
2020/12/06 09:23:25;;;;;;;10.10;5.85;;;13.90;60.80;;;;;;5013154;28;20546;-64
2020/12/06 09:25:51;;;;;;;13.93;6.80;;;14.00;60.80;;;;;;5004729;28;20248;-64
2020/12/06 09:28:16;;;;;;;15.07;6.72;;;14.00;60.80;;;;;;5004565;28;20136;-63
2020/12/06 09:30:43;;;;;;;10.88;5.43;;;14.00;60.90;;;;;;5003436;28;20482;-65
2020/12/06 09:33:09;;;;;;;12.35;5.80;;;14.00;61.00;;;;;;4996980;28;20073;-63
2020/12/06 09:35:34;;;;;;;17.38;5.80;;;14.10;61.10;;;;;;5004516;28;20712;-64
2020/12/06 09:38:00;;;;;;;12.18;5.55;;;14.20;61.10;;;;;;5008174;28;20403;-64
2020/12/06 09:40:26;;;;;;;13.30;5.85;;;14.20;61.00;;;;;;5007924;28;20100;-65
2020/12/06 09:42:51;;;;;;;9.98;5.55;;;14.20;61.00;;;;;;5006496;28;20030;-64
2020/12/06 09:45:17;;;;;;;9.93;5.53;;;14.30;61.00;;;;;;5007785;28;20080;-67
2020/12/06 09:47:42;;;;;;;12.55;5.38;;;14.30;61.20;;;;;;5005534;28;20132;-63
2020/12/06 09:50:08;;;;;;;13.30;5.40;;;14.30;61.00;;;;;;5006726;28;20040;-63
2020/12/06 09:52:33;;;;;;;10.43;5.28;;;14.30;61.10;;;;;;5007857;28;20034;-64
2020/12/06 09:54:59;;;;;;;13.40;5.68;;;14.30;61.10;;;;;;5006085;28;20030;-62
2020/12/06 09:57:25;;;;;;;11.95;5.40;;;14.30;61.10;;;;;;5004940;28;20034;-64
2020/12/06 09:59:51;;;;;;;9.90;5.32;;;14.30;61.10;;;;;;5006554;28;20473;-64
2020/12/06 10:02:16;;;;;;;10.52;5.22;;;14.30;61.20;;;;;;5006452;28;20025;-63
2020/12/06 10:04:42;;;;;;;10.85;5.20;;;14.30;61.20;;;;;;5005951;28;20026;-63
2020/12/06 10:07:08;;;;;;;11.95;5.57;;;14.40;61.20;;;;;;5004436;28;20113;-64
2020/12/06 10:09:33;;;;;;;15.52;5.18;;;14.40;61.40;;;;;;5006434;28;20406;-62
2020/12/06 10:11:59;;;;;;;12.55;4.85;;;14.40;61.20;;;;;;5005827;28;20049;-63
2020/12/06 10:14:24;;;;;;;11.73;5.20;;;14.40;61.40;;;;;;5005573;28;20091;-63
2020/12/06 10:16:50;;;;;;;13.13;7.53;;;14.40;61.40;;;;;;5007714;28;20032;-66
2020/12/06 10:19:15;;;;;;;16.13;8.40;;;14.40;61.20;;;;;;5006153;28;20505;-63
2020/12/06 10:21:41;;;;;;;13.98;7.15;;;14.40;61.00;;;;;;5007818;28;20068;-63
2020/12/06 10:24:06;;;;;;;15.57;6.55;;;14.40;61.00;;;;;;5006982;28;20104;-62
2020/12/06 10:26:32;;;;;;;10.32;5.70;;;14.40;60.90;;;;;;5018929;28;20556;-62
2020/12/06 10:28:58;;;;;;;11.95;5.50;;;14.50;61.00;;;;;;5026703;28;20037;-64
2020/12/06 10:31:24;;;;;;;11.02;5.57;;;14.50;61.10;;;;;;5026937;28;20021;-63
2020/12/06 10:33:50;;;;;;;10.38;5.35;;;14.50;61.10;;;;;;5023411;28;20152;-64
2020/12/06 10:36:15;;;;;;;12.52;6.47;;;14.50;61.10;;;;;;5006952;28;20130;-65
2020/12/06 10:38:41;;;;;;;11.98;6.20;;;14.50;61.20;;;;;;5006948;28;20383;-64
2020/12/06 10:41:07;;;;;;;10.15;5.75;;;14.60;61.70;;;;;;5005762;28;20128;-62
2020/12/06 10:43:32;;;;;;;10.93;5.40;;;14.60;61.80;;;;;;4988540;28;20038;-64
2020/12/06 10:45:58;;;;;;;11.73;5.60;;;14.60;61.70;;;;;;5004733;28;20034;-63
2020/12/06 10:48:23;;;;;;;10.68;5.13;;;14.70;62.40;;;;;;5005565;28;20033;-63
2020/12/06 10:50:53;;;;;;;9.60;5.40;;;14.70;61.70;;;;;;5006535;28;20029;-64
2020/12/06 10:53:19;;;;;;;10.23;5.75;;;14.80;61.40;;;;;;5004362;28;20120;-61
2020/12/06 10:55:44;;;;;;;13.00;5.35;;;14.80;61.40;;;;;;5004752;28;20120;-63
2020/12/06 10:58:10;;;;;;;9.55;5.50;;;14.80;61.50;;;;;;5006291;28;20231;-63
2020/12/06 11:00:35;;;;;;;11.05;4.88;;;14.80;61.50;;;;;;5004942;28;20437;-63
2020/12/06 11:03:01;;;;;;;9.05;4.63;;;14.80;61.40;;;;;;5006294;28;20026;-63
2020/12/06 11:05:26;;;;;;;10.38;4.90;;;14.80;61.50;;;;;;5004032;28;20384;-63
2020/12/06 11:07:52;;;;;;;8.48;4.25;;;14.80;61.50;;;;;;4988449;28;20027;-64
2020/12/06 11:10:17;;;;;;;7.80;4.35;;;14.80;61.50;;;;;;4989897;28;20395;-65
2020/12/06 11:12:43;;;;;;;9.55;4.88;;;14.80;61.50;;;;;;5004911;28;20088;-63
2020/12/06 11:15:09;;;;;;;9.82;5.35;;;14.90;61.60;;;;;;5005932;28;20034;-63
2020/12/06 11:17:34;;;;;;;10.77;4.57;;;14.90;61.60;;;;;;5006261;28;20033;-62
2020/12/06 11:20:00;;;;;;;11.30;4.82;;;14.90;61.60;;;;;;5003397;28;20040;-62
2020/12/06 11:22:26;;;;;;;11.02;4.90;;;14.90;61.90;;;;;;5002735;28;20084;-64
2020/12/06 11:24:52;;;;;;;13.63;7.57;;;14.90;62.10;;;;;;5005226;28;20037;-62
2020/12/06 11:27:18;;;;;;;14.00;6.75;;;14.90;61.80;;;;;;5004854;28;20018;-63
2020/12/06 11:29:44;;;;;;;12.48;5.68;;;15.00;62.00;;;;;;5000785;28;20034;-63
2020/12/06 11:32:10;;;;;;;13.95;5.85;;;15.00;62.20;;;;;;5005201;28;20037;-65
2020/12/06 11:34:35;;;;;;;14.68;6.07;;;15.10;62.50;;;;;;5004253;28;20121;-62
2020/12/06 11:37:01;;;;;;;11.15;4.72;;;15.10;62.60;;;;;;5004886;28;20077;-63
2020/12/06 11:39:27;;;;;;;20.25;6.15;;;15.10;62.50;;;;;;5004624;28;20033;-63
2020/12/06 11:41:54;;;;;;;22.27;6.28;;;15.20;62.70;;;;;;5005894;28;20030;-63
2020/12/06 11:44:19;;;;;;;15.27;6.63;;;15.30;62.40;;;;;;5002216;28;20099;-63
2020/12/06 11:46:46;;;;;;;19.95;5.70;;;15.30;62.10;;;;;;5005653;28;20034;-63
2020/12/06 11:49:11;;;;;;;21.92;6.45;;;15.30;62.10;;;;;;5005173;28;20037;-62
2020/12/06 11:51:37;;;;;;;11.32;5.35;;;15.30;62.30;;;;;;5005789;28;20021;-62
2020/12/06 11:54:03;;;;;;;18.52;6.15;;;15.30;62.50;;;;;;5003794;28;20425;-62
2020/12/06 11:56:29;;;;;;;13.65;5.57;;;15.30;62.50;;;;;;4997602;28;20126;-64
2020/12/06 11:58:54;;;;;;;19.23;5.65;;;15.30;62.60;;;;;;4991288;28;20160;-63
2020/12/06 12:01:19;;;;;;;21.52;6.80;;;15.30;62.70;;;;;;5005494;28;20537;-63
2020/12/06 12:03:45;;;;;;;21.40;6.40;;;15.30;62.90;;;;;;5002298;28;20029;-62
2020/12/06 12:06:10;;;;;;;19.70;6.45;;;15.30;63.10;;;;;;5004667;28;20030;-65
2020/12/06 12:08:36;;;;;;;18.15;6.97;;;15.30;63.20;;;;;;5004207;28;20037;-64
2020/12/06 12:11:03;;;;;;;19.10;8.45;;;15.40;63.00;;;;;;5000282;28;20380;-63
2020/12/06 12:13:28;;;;;;;19.95;8.32;;;15.40;62.40;;;;;;4997994;28;20037;-62
2020/12/06 12:15:54;;;;;;;20.45;8.38;;;15.50;62.20;;;;;;4997543;28;20830;-63
2020/12/06 12:18:20;;;;;;;19.08;7.80;;;15.30;62.20;;;;;;5003100;28;20406;-62
2020/12/06 12:20:45;;;;;;;21.48;8.00;;;15.40;62.40;;;;;;5004538;28;20026;-63
2020/12/06 12:23:11;;;;;;;27.38;8.90;;;15.40;62.50;;;;;;5004512;28;20029;-64
2020/12/06 12:25:37;;;;;;;38.35;11.02;;;15.40;62.80;;;;;;4996733;28;20399;-64
2020/12/06 12:28:03;;;;;;;30.10;11.75;;;15.50;62.80;;;;;;4994722;28;20168;-65
2020/12/06 12:30:29;;;;;;;32.85;9.95;;;15.50;62.50;;;;;;4987866;28;20105;-63
2020/12/06 12:32:54;;;;;;;27.38;8.52;;;15.50;62.50;;;;;;4987092;28;20515;-63
2020/12/06 12:35:20;;;;;;;29.95;8.85;;;15.50;62.80;;;;;;5003322;28;20037;-64
2020/12/06 12:37:45;;;;;;;37.28;10.45;;;15.60;62.70;;;;;;5003723;28;20025;-63
2020/12/06 12:40:11;;;;;;;39.08;10.48;;;15.60;62.70;;;;;;4997175;28;20026;-67